Time;durP1;ratioP1;P1;durP2;ratioP2;P2;SDS_P1;SDS_P2;PMS_P1;PMS_P2;Temp;Humidity;BMP_temperature;BMP_pressure;BME280_temperature;BME280_humidity;BME280_pressure;Samples;Min_cycle;Max_cycle;Signal;HPM_P1;HPM_P2
2022/11/03 00:00:01;;;;;;;8.82;2.28;;;12.40;99.90;;;;;;4119106;28;20058;-63
2022/11/03 00:02:02;;;;;;;11.25;2.80;;;12.40;99.90;;;;;;4121358;28;20092;-62
2022/11/03 00:04:04;;;;;;;8.95;2.75;;;12.40;99.90;;;;;;4120482;28;20038;-61
2022/11/03 00:06:05;;;;;;;12.63;2.92;;;12.40;99.90;;;;;;4117972;28;20409;-61
2022/11/03 00:08:05;;;;;;;9.15;2.67;;;12.30;99.90;;;;;;4119404;28;20140;-61
2022/11/03 00:10:06;;;;;;;7.60;2.55;;;12.30;99.90;;;;;;4124044;28;20381;-62
2022/11/03 00:12:07;;;;;;;9.50;2.97;;;12.30;99.90;;;;;;4126910;28;20030;-62
2022/11/03 00:14:09;;;;;;;7.85;2.25;;;12.40;99.90;;;;;;4127261;28;20088;-61
2022/11/03 00:16:11;;;;;;;9.55;2.97;;;12.40;99.90;;;;;;4128355;28;20037;-62
2022/11/03 00:18:11;;;;;;;8.75;2.40;;;12.40;99.90;;;;;;4129230;28;20473;-61
2022/11/03 00:20:12;;;;;;;10.27;2.63;;;12.40;99.90;;;;;;4126527;28;20034;-61
2022/11/03 00:22:13;;;;;;;11.15;2.67;;;12.40;99.90;;;;;;4127962;28;20044;-61
2022/11/03 00:24:13;;;;;;;11.88;3.20;;;12.40;99.90;;;;;;4129201;28;20110;-61
2022/11/03 00:26:16;;;;;;;9.93;3.17;;;12.40;99.90;;;;;;4127027;28;20026;-61
2022/11/03 00:28:17;;;;;;;9.27;2.88;;;12.40;99.90;;;;;;4127732;28;20034;-61
2022/11/03 00:30:17;;;;;;;9.38;2.75;;;12.40;99.90;;;;;;4122739;28;20033;-61
2022/11/03 00:32:18;;;;;;;6.57;2.42;;;12.50;99.90;;;;;;4129157;28;20035;-61
2022/11/03 00:34:18;;;;;;;9.77;2.45;;;12.40;99.90;;;;;;4128996;28;20040;-61
2022/11/03 00:36:21;;;;;;;9.98;3.05;;;12.40;99.90;;;;;;4128130;28;20065;-61
2022/11/03 00:38:22;;;;;;;12.43;2.30;;;12.40;99.90;;;;;;4121792;28;20587;-61
2022/11/03 00:40:22;;;;;;;7.82;2.55;;;12.40;99.90;;;;;;4125112;28;20043;-62
2022/11/03 00:42:23;;;;;;;7.13;2.13;;;12.40;99.90;;;;;;4130603;28;20401;-61
2022/11/03 00:44:24;;;;;;;6.15;2.10;;;12.40;99.90;;;;;;4128461;28;20034;-63
2022/11/03 00:46:25;;;;;;;7.35;2.13;;;12.40;99.90;;;;;;4126110;28;20283;-61
2022/11/03 00:48:29;;;;;;;14.38;3.08;;;12.40;99.90;;;;;;4128311;28;20045;-61
2022/11/03 00:50:48;;;;;;;10.23;2.50;;;12.40;99.90;;;;;;4120587;28;20038;-61
2022/11/03 00:52:48;;;;;;;9.95;2.90;;;12.40;99.90;;;;;;4127675;28;20170;-61
2022/11/03 00:54:49;;;;;;;7.95;2.25;;;12.40;99.90;;;;;;4128786;28;20030;-61
2022/11/03 00:56:49;;;;;;;9.15;2.20;;;12.40;99.90;;;;;;4128139;28;20030;-61
2022/11/03 00:58:51;;;;;;;8.35;2.15;;;12.40;99.90;;;;;;4128277;28;20041;-61
2022/11/03 01:01:00;;;;;;;6.47;2.17;;;12.40;99.90;;;;;;4124884;28;20050;-61
2022/11/03 01:03:01;;;;;;;12.48;3.00;;;12.40;99.90;;;;;;4124347;28;20046;-61
2022/11/03 01:07:21;;;;;;;9.75;3.00;;;12.40;99.90;;;;;;4125147;28;20046;-62
2022/11/03 01:09:36;;;;;;;8.27;2.25;;;12.30;99.90;;;;;;4127874;28;20038;-61
2022/11/03 01:11:42;;;;;;;10.52;2.33;;;12.30;99.90;;;;;;4123258;28;20039;-63
2022/11/03 01:13:43;;;;;;;7.38;2.38;;;12.30;99.90;;;;;;4128679;28;20026;-62
2022/11/03 01:15:43;;;;;;;9.75;2.47;;;12.20;99.90;;;;;;4127336;28;20390;-61
2022/11/03 01:17:44;;;;;;;9.63;2.75;;;12.30;99.90;;;;;;4128028;28;20030;-62
2022/11/03 01:19:45;;;;;;;8.38;2.22;;;12.30;99.90;;;;;;4124878;28;20093;-61
2022/11/03 01:21:46;;;;;;;9.35;2.50;;;12.20;99.90;;;;;;4124247;28;20037;-61
2022/11/03 01:23:47;;;;;;;8.40;2.47;;;12.20;99.90;;;;;;4128715;28;20034;-61
2022/11/03 01:25:48;;;;;;;8.65;2.60;;;12.20;99.90;;;;;;4126821;28;20084;-61
2022/11/03 01:27:48;;;;;;;6.88;2.33;;;12.20;99.90;;;;;;4128031;28;20030;-61
2022/11/03 01:29:49;;;;;;;9.00;2.50;;;12.20;99.90;;;;;;4123931;28;20041;-61
2022/11/03 01:31:49;;;;;;;12.43;2.40;;;12.20;99.90;;;;;;4123235;28;20034;-61
2022/11/03 01:33:52;;;;;;;9.02;2.60;;;12.10;99.90;;;;;;4127831;28;20314;-61
2022/11/03 01:35:52;;;;;;;6.28;2.05;;;12.20;99.90;;;;;;4126999;28;20058;-62
2022/11/03 01:37:55;;;;;;;8.35;2.65;;;12.20;99.90;;;;;;4128616;28;20100;-61
2022/11/03 01:39:55;;;;;;;10.27;2.50;;;12.10;99.90;;;;;;4120689;28;20038;-61
2022/11/03 01:41:56;;;;;;;8.82;2.88;;;12.10;99.90;;;;;;4126990;28;20517;-61
2022/11/03 01:44:06;;;;;;;10.25;2.88;;;12.10;99.90;;;;;;4128287;28;20486;-61
2022/11/03 01:46:21;;;;;;;11.63;2.40;;;12.10;99.90;;;;;;4124101;28;20497;-63
2022/11/03 01:48:23;;;;;;;6.68;2.45;;;12.10;99.90;;;;;;4128637;28;20494;-62
2022/11/03 01:50:23;;;;;;;6.57;2.03;;;12.10;99.90;;;;;;4125251;28;20133;-62
2022/11/03 01:52:32;;;;;;;9.02;2.80;;;12.10;99.90;;;;;;4126284;28;20054;-62
2022/11/03 01:54:35;;;;;;;14.48;3.70;;;12.10;99.90;;;;;;4126696;28;20050;-61
2022/11/03 01:56:40;;;;;;;11.32;2.55;;;12.10;99.90;;;;;;4128138;28;20038;-61
2022/11/03 01:58:43;;;;;;;13.30;2.90;;;12.10;99.90;;;;;;4127916;28;20065;-62
2022/11/03 02:00:47;;;;;;;8.98;2.25;;;12.10;99.90;;;;;;4125809;28;20054;-61
2022/11/03 02:02:49;;;;;;;10.93;2.58;;;12.00;99.90;;;;;;4123968;28;20030;-61
2022/11/03 02:04:49;;;;;;;10.23;2.28;;;12.10;99.90;;;;;;4128314;28;20085;-61
2022/11/03 02:07:08;;;;;;;9.30;2.65;;;12.10;99.90;;;;;;4123206;28;20038;-61
2022/11/03 02:09:10;;;;;;;9.82;2.78;;;12.10;99.90;;;;;;4125456;28;20030;-61
2022/11/03 02:13:31;;;;;;;10.82;3.00;;;12.10;99.90;;;;;;4126459;28;20038;-61
2022/11/03 02:15:32;;;;;;;11.68;2.55;;;12.10;99.90;;;;;;4127697;28;20041;-61
2022/11/03 02:17:35;;;;;;;8.60;2.75;;;12.20;99.90;;;;;;4125282;28;20034;-61
2022/11/03 02:19:44;;;;;;;12.88;2.58;;;12.10;99.90;;;;;;4123202;28;20096;-61
2022/11/03 02:21:58;;;;;;;7.95;2.10;;;12.10;99.90;;;;;;4126161;28;20093;-60
2022/11/03 02:24:32;;;;;;;11.63;2.47;;;12.20;99.90;;;;;;4128132;28;20363;-61
2022/11/03 02:26:34;;;;;;;10.00;2.63;;;12.20;99.90;;;;;;4105338;28;20554;-61
2022/11/03 02:28:34;;;;;;;8.65;2.80;;;12.20;99.90;;;;;;4126164;28;20084;-61
2022/11/03 02:31:15;;;;;;;11.07;2.97;;;12.10;99.90;;;;;;4123808;28;20050;-61
2022/11/03 02:33:18;;;;;;;12.00;2.63;;;12.20;99.90;;;;;;4123884;28;20034;-61
2022/11/03 02:35:37;;;;;;;5.50;1.95;;;12.20;99.90;;;;;;4123687;28;20113;-61
2022/11/03 02:37:42;;;;;;;12.23;2.65;;;12.20;99.90;;;;;;4126408;28;20556;-63
2022/11/03 02:39:53;;;;;;;7.38;2.65;;;12.30;99.90;;;;;;4126256;28;20066;-61
2022/11/03 02:41:56;;;;;;;10.93;3.17;;;12.20;99.90;;;;;;4126274;28;20046;-62
2022/11/03 02:43:58;;;;;;;12.25;2.45;;;12.20;99.90;;;;;;4128211;28;20482;-61
2022/11/03 02:45:59;;;;;;;11.48;2.63;;;12.20;99.90;;;;;;4122966;28;20049;-61
2022/11/03 02:48:02;;;;;;;11.20;3.05;;;12.10;99.90;;;;;;4124676;28;20335;-61
2022/11/03 02:50:06;;;;;;;;;;;12.20;99.90;;;;;;4125262;28;20401;-64
2022/11/03 02:52:26;;;;;;;13.52;2.55;;;12.20;99.90;;;;;;4125809;28;19992;-61
2022/11/03 02:54:38;;;;;;;9.60;2.45;;;12.20;99.90;;;;;;4126615;28;20154;-61
2022/11/03 02:56:49;;;;;;;9.30;2.42;;;12.20;99.90;;;;;;4126720;28;20402;-62
2022/11/03 02:59:03;;;;;;;8.10;2.58;;;12.10;99.90;;;;;;4124160;28;20438;-61
2022/11/03 03:01:17;;;;;;;7.35;2.53;;;12.20;99.90;;;;;;4126179;28;20559;-61
2022/11/03 03:03:24;;;;;;;11.65;2.72;;;12.20;99.90;;;;;;4127649;28;20126;-61
2022/11/03 03:05:29;;;;;;;10.93;2.97;;;12.20;99.90;;;;;;4124722;28;20398;-61
2022/11/03 03:07:34;;;;;;;6.80;2.47;;;12.20;99.90;;;;;;4125945;28;20037;-61
2022/11/03 03:09:42;;;;;;;11.30;2.80;;;12.20;99.90;;;;;;4125555;28;20082;-61
2022/11/03 03:11:46;;;;;;;10.65;3.40;;;12.30;99.90;;;;;;4125884;28;20042;-61
2022/11/03 03:13:47;;;;;;;13.30;2.75;;;12.20;99.90;;;;;;4127679;28;20497;-61
2022/11/03 03:15:56;;;;;;;7.72;2.60;;;12.20;99.90;;;;;;4126767;28;20035;-61
2022/11/03 03:18:09;;;;;;;11.20;2.72;;;12.20;99.90;;;;;;4127007;28;20616;-60
2022/11/03 03:20:21;;;;;;;;;;;12.20;99.90;;;;;;4125702;28;20027;-62
2022/11/03 03:22:46;;;;;;;10.57;2.80;;;12.20;99.90;;;;;;4125289;28;19917;-61
2022/11/03 03:24:57;;;;;;;18.15;3.40;;;12.20;99.90;;;;;;4125777;28;20105;-61
2022/11/03 03:27:01;;;;;;;11.13;3.17;;;12.20;99.90;;;;;;4119446;28;20038;-61
2022/11/03 03:29:04;;;;;;;8.45;2.65;;;12.10;99.90;;;;;;4118904;28;20065;-61
2022/11/03 03:31:09;;;;;;;16.20;3.10;;;12.10;99.90;;;;;;4119767;28;20093;-61
2022/11/03 03:33:11;;;;;;;9.40;2.47;;;12.10;99.90;;;;;;4124416;28;20441;-62
2022/11/03 03:35:22;;;;;;;9.70;2.85;;;12.10;99.90;;;;;;4122848;28;20494;-61
2022/11/03 03:37:25;;;;;;;10.02;2.50;;;12.10;99.90;;;;;;4124459;28;20610;-61
2022/11/03 03:39:30;;;;;;;11.68;3.10;;;12.20;99.90;;;;;;4122419;28;20069;-61
2022/11/03 03:41:32;;;;;;;12.70;3.10;;;12.10;99.90;;;;;;4122017;28;20460;-61
2022/11/03 03:43:34;;;;;;;8.47;2.73;;;12.10;99.90;;;;;;4124640;28;20195;-61
2022/11/03 03:45:35;;;;;;;8.50;2.75;;;12.10;99.90;;;;;;4126199;28;20080;-60
2022/11/03 03:47:36;;;;;;;13.35;2.72;;;12.10;99.90;;;;;;4126870;28;20043;-60
2022/11/03 03:49:37;;;;;;;12.02;3.13;;;12.10;99.90;;;;;;4127308;28;20052;-61
2022/11/03 03:51:37;;;;;;;10.55;2.65;;;12.10;99.90;;;;;;4122249;28;20045;-61
2022/11/03 03:53:38;;;;;;;8.20;2.35;;;12.20;99.90;;;;;;4126411;28;20031;-61
2022/11/03 03:55:44;;;;;;;17.60;2.75;;;12.10;99.90;;;;;;4123604;28;20057;-63
2022/11/03 03:57:45;;;;;;;10.25;2.92;;;12.10;99.90;;;;;;4124183;28;20169;-61
2022/11/03 03:59:45;;;;;;;15.32;3.47;;;12.10;99.90;;;;;;4128699;28;20054;-61
2022/11/03 04:01:46;;;;;;;13.70;3.22;;;12.10;99.90;;;;;;4123715;28;20113;-61
2022/11/03 04:03:47;;;;;;;14.55;3.40;;;12.20;99.90;;;;;;4129807;28;20026;-61
2022/11/03 04:05:48;;;;;;;9.70;2.83;;;12.10;99.90;;;;;;4126094;28;20038;-61
2022/11/03 04:07:48;;;;;;;13.88;3.10;;;12.20;99.90;;;;;;4127338;28;20027;-61
2022/11/03 04:09:49;;;;;;;11.45;3.20;;;12.20;99.90;;;;;;4122572;28;20394;-61
2022/11/03 04:23:30;;;;;;;;;;;12.20;99.90;;;;;;4126654;28;20362;-61
2022/11/03 04:25:31;;;;;;;12.65;2.85;;;12.30;99.90;;;;;;4127968;28;20033;-61
2022/11/03 04:27:36;;;;;;;9.95;2.80;;;12.20;99.90;;;;;;4123315;28;20030;-61
2022/11/03 04:29:36;;;;;;;9.55;2.40;;;12.20;99.90;;;;;;4124601;28;20117;-61
2022/11/03 04:31:37;;;;;;;15.07;3.20;;;12.20;99.90;;;;;;4125753;28;20054;-61
2022/11/03 04:33:39;;;;;;;9.27;2.45;;;12.30;99.90;;;;;;4125022;28;20496;-61
2022/11/03 04:35:43;;;;;;;11.82;3.15;;;12.30;99.90;;;;;;4126071;28;20035;-62
2022/11/03 04:37:47;;;;;;;8.52;2.42;;;12.30;99.90;;;;;;4127841;28;20030;-61
2022/11/03 04:39:47;;;;;;;11.63;3.08;;;12.30;99.90;;;;;;4123236;28;20043;-61
2022/11/03 04:41:48;;;;;;;14.60;3.42;;;12.30;99.90;;;;;;4123888;28;20039;-61
2022/11/03 04:43:50;;;;;;;13.13;3.15;;;12.30;99.90;;;;;;4126351;28;20039;-61
2022/11/03 04:45:51;;;;;;;8.85;2.47;;;12.30;99.90;;;;;;4120309;28;20503;-61
2022/11/03 04:47:52;;;;;;;9.20;2.58;;;12.30;99.90;;;;;;4124434;28;20143;-61
2022/11/03 04:49:53;;;;;;;10.60;3.03;;;12.40;99.90;;;;;;4121219;28;20043;-62
2022/11/03 04:51:53;;;;;;;7.90;2.22;;;12.30;99.90;;;;;;4121635;28;20027;-62
2022/11/03 04:54:00;;;;;;;9.90;2.67;;;12.30;99.90;;;;;;4125064;28;20027;-62
2022/11/03 04:56:01;;;;;;;12.00;2.70;;;12.30;99.90;;;;;;4122954;28;20034;-61
2022/11/03 04:58:17;;;;;;;9.38;3.45;;;12.30;99.90;;;;;;4124774;28;20034;-61
2022/11/03 05:00:19;;;;;;;12.02;3.08;;;12.30;99.90;;;;;;4122077;28;20580;-61
2022/11/03 05:02:20;;;;;;;7.50;2.65;;;12.30;99.90;;;;;;4119357;28;20035;-61
2022/11/03 05:04:21;;;;;;;11.63;3.00;;;12.30;99.90;;;;;;4123670;28;20026;-61
2022/11/03 05:06:26;;;;;;;11.13;2.78;;;12.30;99.90;;;;;;4121951;28;20089;-61
2022/11/03 05:08:26;;;;;;;10.65;3.17;;;12.30;99.90;;;;;;4122035;28;20027;-61
2022/11/03 05:10:28;;;;;;;10.50;2.75;;;12.30;99.90;;;;;;4120615;28;20519;-61
2022/11/03 05:12:29;;;;;;;14.27;3.35;;;12.30;99.90;;;;;;4128050;28;20417;-61
2022/11/03 05:14:31;;;;;;;12.48;3.25;;;12.30;99.90;;;;;;4122176;28;20482;-61
2022/11/03 05:16:33;;;;;;;8.25;2.55;;;12.30;99.90;;;;;;4122989;28;20161;-61
2022/11/03 05:18:37;;;;;;;11.23;3.33;;;12.40;99.90;;;;;;4121866;28;20510;-61
2022/11/03 05:20:46;;;;;;;9.60;2.83;;;12.40;99.90;;;;;;4122081;28;20041;-61
2022/11/03 05:22:47;;;;;;;11.88;2.83;;;12.40;99.90;;;;;;4121907;28;20031;-61
2022/11/03 05:24:54;;;;;;;8.30;3.22;;;12.40;99.90;;;;;;4126293;28;20110;-61
2022/11/03 05:26:57;;;;;;;10.40;2.50;;;12.40;99.90;;;;;;4121145;28;20121;-61
2022/11/03 05:29:02;;;;;;;11.45;2.65;;;12.40;99.90;;;;;;4121579;28;20394;-61
2022/11/03 05:31:19;;;;;;;10.32;3.13;;;12.40;99.90;;;;;;4122974;28;20516;-61
2022/11/03 05:33:36;;;;;;;9.60;2.53;;;12.50;99.90;;;;;;4122392;28;20042;-61
2022/11/03 05:35:37;;;;;;;7.35;2.45;;;12.50;99.90;;;;;;4124802;28;20057;-61
2022/11/03 05:37:37;;;;;;;13.02;2.88;;;12.40;99.90;;;;;;4123712;28;20042;-61
2022/11/03 05:39:45;;;;;;;8.85;2.35;;;12.50;99.90;;;;;;4123607;28;20034;-61
2022/11/03 05:41:45;;;;;;;8.30;2.60;;;12.40;99.90;;;;;;4125198;28;20042;-61
2022/11/03 05:44:13;;;;;;;8.05;2.47;;;12.50;99.90;;;;;;4128711;28;20612;-61
2022/11/03 05:46:14;;;;;;;11.30;3.08;;;12.50;99.90;;;;;;4110985;28;20085;-61
2022/11/03 05:48:31;;;;;;;6.88;2.20;;;12.50;99.90;;;;;;4124476;28;20089;-61
2022/11/03 05:50:33;;;;;;;6.93;2.63;;;12.50;99.90;;;;;;4120204;28;20031;-61
2022/11/03 05:52:34;;;;;;;10.05;2.78;;;12.50;99.90;;;;;;4122099;28;20192;-61
2022/11/03 05:54:34;;;;;;;13.95;3.05;;;12.50;99.90;;;;;;4128615;28;20038;-61
2022/11/03 05:56:35;;;;;;;8.45;2.65;;;12.50;99.90;;;;;;4123931;28;20069;-61
2022/11/03 05:58:41;;;;;;;10.10;2.78;;;12.50;99.90;;;;;;4124773;28;20045;-61
2022/11/03 06:00:43;;;;;;;12.18;2.60;;;12.50;99.90;;;;;;4121748;28;20494;-61
2022/11/03 06:02:44;;;;;;;11.25;3.22;;;12.50;99.90;;;;;;4124198;28;20034;-62
2022/11/03 06:04:44;;;;;;;17.65;3.10;;;12.50;99.90;;;;;;4126224;28;20042;-62
2022/11/03 06:07:00;;;;;;;10.05;2.75;;;12.50;99.90;;;;;;4119373;28;20100;-62
2022/11/03 06:09:04;;;;;;;14.73;3.85;;;12.50;99.90;;;;;;4119711;28;20156;-61
2022/11/03 06:11:08;;;;;;;11.52;2.95;;;12.40;99.90;;;;;;4122390;28;20042;-62
2022/11/03 06:13:31;;;;;;;8.45;2.95;;;12.50;99.90;;;;;;4124016;28;20497;-64
2022/11/03 06:15:36;;;;;;;9.63;2.47;;;12.40;99.90;;;;;;4120796;28;20041;-64
2022/11/03 06:17:37;;;;;;;10.57;2.60;;;12.40;99.90;;;;;;4124912;28;20035;-64
2022/11/03 06:19:40;;;;;;;9.73;2.70;;;12.40;99.90;;;;;;4125801;28;20045;-64
2022/11/03 06:21:43;;;;;;;12.15;3.00;;;12.40;99.90;;;;;;4124857;28;20114;-64
2022/11/03 06:23:43;;;;;;;;;;;12.40;99.90;;;;;;4119627;28;20030;-64
2022/11/03 06:25:45;;;;;;;13.02;3.25;;;12.40;99.90;;;;;;4119812;28;19942;-64
2022/11/03 06:27:46;;;;;;;12.32;2.85;;;12.40;99.90;;;;;;4117283;28;20149;-64
2022/11/03 06:29:55;;;;;;;8.77;3.00;;;12.40;99.90;;;;;;4122797;28;20034;-63
2022/11/03 06:31:56;;;;;;;9.60;2.80;;;12.50;99.90;;;;;;4124283;28;20042;-64
2022/11/03 06:33:58;;;;;;;12.23;2.88;;;12.40;99.90;;;;;;4126260;28;20117;-64
2022/11/03 06:36:02;;;;;;;10.98;2.65;;;12.40;99.90;;;;;;4116577;28;20039;-64
2022/11/03 06:38:14;;;;;;;15.40;3.20;;;12.40;99.90;;;;;;4122358;28;20444;-64
2022/11/03 06:40:15;;;;;;;12.13;3.08;;;12.50;99.90;;;;;;4122120;28;20041;-64
2022/11/03 06:42:19;;;;;;;7.85;3.00;;;12.50;99.90;;;;;;4119266;28;20034;-64
2022/11/03 06:44:24;;;;;;;9.18;2.95;;;12.50;99.90;;;;;;4122082;28;20080;-64
2022/11/03 06:46:26;;;;;;;8.55;2.90;;;12.50;99.90;;;;;;4126364;28;20026;-65
2022/11/03 06:48:33;;;;;;;12.65;3.13;;;12.50;99.90;;;;;;4123296;28;20026;-64
2022/11/03 06:50:33;;;;;;;9.18;2.58;;;12.50;99.90;;;;;;4125393;28;20041;-64
2022/11/03 06:52:38;;;;;;;9.80;3.08;;;12.40;99.90;;;;;;4124749;28;20553;-64
2022/11/03 06:54:39;;;;;;;13.38;3.45;;;12.50;99.90;;;;;;4120195;28;20069;-64
2022/11/03 06:56:41;;;;;;;9.05;2.45;;;12.50;99.90;;;;;;4140092;28;20030;-64
2022/11/03 06:58:41;;;;;;;11.70;2.65;;;12.50;99.90;;;;;;4126957;28;20049;-64
2022/11/03 07:00:43;;;;;;;12.75;3.20;;;12.50;99.90;;;;;;4124063;28;20031;-65
2022/11/03 07:02:58;;;;;;;10.80;2.88;;;12.50;99.90;;;;;;4125375;28;20560;-65
2022/11/03 07:04:59;;;;;;;15.23;3.28;;;12.50;99.90;;;;;;4125358;28;20097;-64
2022/11/03 07:07:02;;;;;;;8.25;2.70;;;12.50;99.90;;;;;;4117549;28;20035;-64
2022/11/03 07:09:11;;;;;;;13.80;3.10;;;12.50;99.90;;;;;;4119498;28;20113;-64
2022/11/03 07:11:16;;;;;;;12.15;2.72;;;12.50;99.90;;;;;;4119746;28;20053;-65
2022/11/03 07:13:23;;;;;;;10.02;3.05;;;12.50;99.90;;;;;;4117518;28;20426;-63
2022/11/03 07:15:32;;;;;;;7.07;2.35;;;12.50;99.90;;;;;;4117456;28;20049;-64
2022/11/03 07:17:33;;;;;;;9.85;3.15;;;12.50;99.90;;;;;;4123822;28;20042;-64
2022/11/03 07:19:43;;;;;;;6.43;2.50;;;12.50;99.90;;;;;;4123143;28;20445;-64
2022/11/03 07:21:45;;;;;;;8.13;2.70;;;12.50;99.90;;;;;;4125071;28;20086;-65
2022/11/03 07:23:46;;;;;;;9.73;2.92;;;12.50;99.90;;;;;;4125610;28;20050;-64
2022/11/03 07:25:56;;;;;;;12.15;2.67;;;12.60;99.90;;;;;;4115425;28;20132;-64
2022/11/03 07:27:59;;;;;;;9.73;2.78;;;12.60;99.90;;;;;;4125850;28;20201;-65
2022/11/03 07:30:22;;;;;;;10.00;2.95;;;12.50;99.90;;;;;;4127854;28;20045;-65
2022/11/03 07:32:30;;;;;;;9.30;2.75;;;12.60;99.90;;;;;;4126223;28;20043;-65
2022/11/03 07:34:32;;;;;;;14.68;3.72;;;12.60;99.90;;;;;;4126469;28;20030;-65
2022/11/03 07:36:32;;;;;;;10.43;3.00;;;12.70;99.90;;;;;;4126729;28;20544;-64
2022/11/03 07:38:33;;;;;;;9.68;3.03;;;12.70;99.90;;;;;;4128104;28;20034;-64
2022/11/03 07:40:34;;;;;;;13.60;3.70;;;12.70;99.90;;;;;;4126760;28;20535;-64
2022/11/03 07:42:34;;;;;;;13.32;3.17;;;12.80;99.90;;;;;;4127721;28;20048;-63
2022/11/03 07:44:35;;;;;;;14.63;3.50;;;12.80;99.90;;;;;;4126723;28;20053;-64
2022/11/03 07:46:36;;;;;;;10.30;2.75;;;12.80;99.90;;;;;;4125551;28;20145;-63
2022/11/03 07:48:43;;;;;;;17.80;3.30;;;12.80;99.90;;;;;;4127464;28;20041;-64
2022/11/03 07:50:45;;;;;;;11.63;3.40;;;12.80;99.90;;;;;;4123851;28;20597;-63
2022/11/03 07:52:45;;;;;;;11.23;2.90;;;12.90;99.90;;;;;;4119639;28;20027;-64
2022/11/03 07:54:46;;;;;;;12.07;3.30;;;12.90;99.90;;;;;;4125093;28;20046;-64
2022/11/03 07:56:56;;;;;;;8.05;2.80;;;12.90;99.90;;;;;;4124280;28;20057;-64
2022/11/03 07:59:08;;;;;;;14.18;2.85;;;13.00;99.90;;;;;;4123689;28;21185;-64
2022/11/03 08:01:23;;;;;;;8.88;2.40;;;13.00;99.90;;;;;;4122953;28;20397;-64
2022/11/03 08:03:41;;;;;;;12.60;3.50;;;13.10;99.90;;;;;;4119547;28;20061;-64
2022/11/03 08:05:42;;;;;;;12.60;3.65;;;13.00;99.90;;;;;;4124865;28;20092;-64
2022/11/03 08:07:42;;;;;;;14.60;3.50;;;13.10;99.90;;;;;;4125808;28;20572;-64
2022/11/03 08:09:43;;;;;;;9.52;3.05;;;13.10;99.90;;;;;;4124171;28;20397;-65
2022/11/03 08:11:44;;;;;;;15.13;3.78;;;13.10;99.90;;;;;;4125976;28;20106;-65
2022/11/03 08:13:45;;;;;;;9.70;3.30;;;13.10;99.90;;;;;;4125891;28;20126;-64
2022/11/03 08:15:45;;;;;;;8.00;2.50;;;13.10;99.90;;;;;;4123505;28;22889;-64
2022/11/03 08:17:46;;;;;;;9.05;3.30;;;13.10;99.90;;;;;;4126743;28;20104;-65
2022/11/03 08:19:47;;;;;;;13.45;3.00;;;13.20;99.90;;;;;;4125706;28;20037;-65
2022/11/03 08:21:47;;;;;;;9.50;3.05;;;13.10;99.90;;;;;;4123885;28;20034;-64
2022/11/03 08:23:48;;;;;;;9.25;2.67;;;13.20;99.90;;;;;;4124389;28;20113;-65
2022/11/03 08:25:48;;;;;;;8.23;2.40;;;13.30;99.90;;;;;;4121334;28;20022;-64
2022/11/03 08:27:49;;;;;;;11.38;3.00;;;13.30;99.90;;;;;;4125070;28;20359;-65
2022/11/03 08:29:50;;;;;;;9.52;3.13;;;13.40;99.90;;;;;;4127844;28;20030;-65
2022/11/03 08:31:50;;;;;;;12.32;3.17;;;13.40;99.90;;;;;;4125118;28;20516;-64
2022/11/03 08:33:51;;;;;;;24.30;13.20;;;13.40;99.90;;;;;;4126384;28;20037;-65
2022/11/03 08:35:51;;;;;;;15.23;5.65;;;13.50;99.90;;;;;;4123397;28;20033;-64
2022/11/03 08:37:52;;;;;;;9.98;3.05;;;13.60;99.90;;;;;;4123792;28;20061;-64
2022/11/03 08:39:52;;;;;;;13.20;3.60;;;13.60;99.90;;;;;;4126950;28;20117;-64
2022/11/03 08:41:53;;;;;;;11.88;3.25;;;13.60;99.90;;;;;;4126389;28;20035;-65
2022/11/03 08:43:53;;;;;;;9.00;3.03;;;13.60;99.90;;;;;;4121684;28;20058;-64
2022/11/03 08:45:54;;;;;;;10.32;2.50;;;13.70;99.90;;;;;;4123483;28;20038;-64
2022/11/03 08:47:55;;;;;;;14.40;3.20;;;13.70;99.90;;;;;;4122784;28;20043;-64
2022/11/03 08:49:56;;;;;;;11.15;2.90;;;13.70;99.90;;;;;;4123390;28;20456;-65
2022/11/03 08:51:57;;;;;;;8.02;3.05;;;13.70;99.90;;;;;;4124171;28;20367;-66
2022/11/03 08:53:57;;;;;;;11.05;3.22;;;13.70;99.90;;;;;;4123784;28;20039;-65
2022/11/03 08:55:58;;;;;;;11.23;2.85;;;13.70;99.90;;;;;;4121822;28;20041;-65
2022/11/03 08:57:58;;;;;;;7.82;2.55;;;13.70;99.90;;;;;;4126660;28;20038;-64
2022/11/03 08:59:59;;;;;;;11.70;2.70;;;13.70;99.90;;;;;;4126370;28;20104;-65
2022/11/03 09:01:59;;;;;;;9.57;2.67;;;13.80;99.90;;;;;;4124795;28;20038;-65
2022/11/03 09:04:00;;;;;;;9.85;3.20;;;13.80;99.90;;;;;;4125204;28;20034;-65
2022/11/03 09:06:00;;;;;;;10.77;2.92;;;13.70;99.90;;;;;;4125921;28;20126;-65
2022/11/03 09:08:01;;;;;;;12.63;3.17;;;13.80;99.90;;;;;;4124634;28;20035;-65
2022/11/03 09:10:02;;;;;;;11.27;3.22;;;13.70;99.90;;;;;;4126854;28;20053;-65
2022/11/03 09:12:03;;;;;;;13.20;2.85;;;13.80;99.90;;;;;;4126001;28;20031;-64
2022/11/03 09:14:03;;;;;;;11.43;2.78;;;13.80;99.90;;;;;;4125965;28;20042;-65
2022/11/03 09:16:04;;;;;;;7.50;2.88;;;13.80;99.90;;;;;;4125574;28;20069;-64
2022/11/03 09:18:05;;;;;;;10.10;2.10;;;13.80;99.90;;;;;;4124815;28;20075;-65
2022/11/03 09:20:06;;;;;;;9.50;3.13;;;13.80;99.90;;;;;;4125968;28;20030;-65
2022/11/03 09:22:06;;;;;;;11.80;2.95;;;13.80;99.90;;;;;;4123657;28;20026;-64
2022/11/03 09:24:07;;;;;;;12.23;3.25;;;13.90;99.90;;;;;;4126853;28;20038;-63
2022/11/03 09:26:08;;;;;;;9.85;3.33;;;13.80;99.90;;;;;;4124894;28;20969;-65
2022/11/03 09:28:08;;;;;;;9.23;2.67;;;13.90;99.90;;;;;;4124939;28;20430;-64
2022/11/03 09:30:09;;;;;;;11.45;2.83;;;13.90;99.90;;;;;;4125237;28;20034;-66
2022/11/03 09:32:10;;;;;;;8.35;2.60;;;13.90;99.90;;;;;;4123753;28;20110;-64
2022/11/03 09:34:11;;;;;;;7.60;2.67;;;14.00;99.90;;;;;;4125297;28;20030;-64
2022/11/03 09:36:12;;;;;;;7.95;2.30;;;14.00;99.90;;;;;;4123190;28;20034;-64
2022/11/03 09:38:12;;;;;;;9.95;2.60;;;14.10;99.90;;;;;;4140334;28;20026;-64
2022/11/03 09:40:15;;;;;;;12.90;2.95;;;14.10;99.90;;;;;;4125867;28;20062;-65
2022/11/03 09:42:17;;;;;;;8.32;2.97;;;14.10;99.90;;;;;;4123207;28;20035;-65
2022/11/03 09:44:19;;;;;;;9.77;2.63;;;14.20;99.90;;;;;;4126443;28;20438;-64
2022/11/03 09:46:19;;;;;;;7.50;2.70;;;14.20;99.90;;;;;;4123263;28;20537;-64
2022/11/03 09:48:20;;;;;;;6.70;2.53;;;14.30;99.90;;;;;;4125731;28;20054;-64
2022/11/03 09:50:21;;;;;;;10.48;2.38;;;14.30;99.90;;;;;;4122657;28;20097;-64
2022/11/03 09:52:23;;;;;;;7.43;2.60;;;14.30;99.90;;;;;;4125719;28;20085;-64
2022/11/03 09:54:25;;;;;;;8.23;2.53;;;14.30;99.90;;;;;;4140045;28;20038;-63
2022/11/03 09:56:26;;;;;;;;;;;14.40;99.90;;;;;;4121688;28;20030;-64
2022/11/03 09:58:27;;;;;;;10.25;3.22;;;14.40;99.90;;;;;;4124771;28;19918;-65
2022/11/03 10:00:27;;;;;;;10.40;2.60;;;14.40;99.90;;;;;;4125132;28;20576;-65
2022/11/03 10:02:31;;;;;;;10.73;2.90;;;14.40;99.90;;;;;;4124664;28;20122;-64
2022/11/03 10:04:31;;;;;;;9.35;2.92;;;14.40;99.90;;;;;;4124507;28;20453;-64
2022/11/03 10:06:32;;;;;;;10.60;2.90;;;14.40;99.90;;;;;;4122180;28;20035;-64
2022/11/03 10:08:35;;;;;;;8.73;2.58;;;14.40;99.90;;;;;;4119863;28;20125;-64
2022/11/03 10:10:37;;;;;;;9.18;2.80;;;14.40;99.90;;;;;;4126276;28;20038;-64
2022/11/03 10:12:38;;;;;;;8.32;3.17;;;14.40;99.90;;;;;;4131118;28;20548;-64
2022/11/03 10:14:40;;;;;;;9.07;2.83;;;14.40;99.90;;;;;;4120878;28;20097;-64
2022/11/03 10:16:42;;;;;;;9.60;3.40;;;14.50;99.90;;;;;;4119128;28;20118;-64
2022/11/03 10:18:42;;;;;;;12.23;2.90;;;14.40;99.90;;;;;;4139131;28;20261;-64
2022/11/03 10:20:43;;;;;;;9.05;2.63;;;14.50;99.90;;;;;;4123621;28;20037;-64
2022/11/03 10:22:46;;;;;;;7.57;2.35;;;14.50;99.90;;;;;;4122691;28;20027;-64
2022/11/03 10:24:47;;;;;;;7.63;2.80;;;14.50;99.90;;;;;;4122163;28;20039;-65
2022/11/03 10:26:50;;;;;;;8.00;2.45;;;14.60;99.90;;;;;;4121255;28;20065;-64
2022/11/03 10:29:04;;;;;;;7.95;2.70;;;14.60;99.90;;;;;;4124340;28;20030;-64
2022/11/03 10:31:16;;;;;;;10.50;3.22;;;14.60;99.90;;;;;;4121716;28;20050;-64
2022/11/03 10:33:34;;;;;;;10.02;2.67;;;14.60;99.90;;;;;;4123981;28;20048;-64
2022/11/03 10:35:35;;;;;;;13.30;2.95;;;14.70;99.90;;;;;;4119567;28;20741;-64
2022/11/03 10:37:37;;;;;;;7.63;2.38;;;14.70;99.90;;;;;;4123678;28;20046;-64
2022/11/03 10:39:38;;;;;;;7.45;2.67;;;14.70;99.90;;;;;;4126825;28;20084;-65
2022/11/03 10:41:55;;;;;;;6.32;2.42;;;14.70;99.90;;;;;;4123272;28;20727;-64
2022/11/03 10:44:11;;;;;;;8.05;2.80;;;14.70;99.90;;;;;;4123716;28;20154;-64
2022/11/03 10:46:19;;;;;;;10.73;2.55;;;14.70;99.90;;;;;;4122870;28;20585;-64
2022/11/03 10:48:19;;;;;;;10.63;3.08;;;14.70;99.90;;;;;;4122303;28;20045;-64
2022/11/03 10:50:23;;;;;;;10.40;2.88;;;14.70;99.90;;;;;;4123189;28;20038;-64
2022/11/03 10:52:28;;;;;;;11.15;2.50;;;14.80;99.90;;;;;;4123653;28;20070;-64
2022/11/03 10:54:35;;;;;;;10.20;2.67;;;14.80;99.90;;;;;;4123132;28;20043;-65
2022/11/03 10:56:35;;;;;;;5.10;1.90;;;14.90;99.90;;;;;;4122441;28;20053;-65